Time;durP1;ratioP1;P1;durP2;ratioP2;P2;SDS_P1;SDS_P2;PMS_P1;PMS_P2;Temp;Humidity;BMP_temperature;BMP_pressure;BME280_temperature;BME280_humidity;BME280_pressure;Samples;Min_cycle;Max_cycle;Signal;HPM_P1;HPM_P2
2021/08/01 00:00:48;;;;;;;;;4.00;4.00;;;;;18.55;58.18;100880.56;5007075;28;56528;-84
2021/08/01 00:03:13;;;;;;;;;4.50;3.00;;;;;18.47;58.28;100875.34;5026343;28;46083;-84
2021/08/01 00:05:38;;;;;;;;;3.25;3.25;;;;;18.44;58.63;100870.41;5026577;28;45926;-84
2021/08/01 00:08:04;;;;;;;;;7.50;4.00;;;;;18.39;59.05;100878.19;5022960;28;45644;-84
2021/08/01 00:10:30;;;;;;;;;5.00;3.75;;;;;18.35;59.02;100874.28;5006585;28;46953;-85
2021/08/01 00:12:56;;;;;;;;;3.75;3.75;;;;;18.30;59.33;100879.38;5025069;28;45783;-85
2021/08/01 00:15:21;;;;;;;;;4.00;3.50;;;;;18.23;58.81;100876.66;5027037;28;46435;-85
2021/08/01 00:17:47;;;;;;;;;7.50;5.00;;;;;18.18;59.54;100871.91;5023689;28;45672;-84
2021/08/01 00:20:13;;;;;;;;;4.50;3.50;;;;;18.16;59.23;100878.47;5022438;28;46896;-84
2021/08/01 00:22:38;;;;;;;;;5.00;5.00;;;;;18.09;59.24;100874.91;5021394;28;46689;-84
2021/08/01 00:25:04;;;;;;;;;4.00;4.00;;;;;18.05;59.35;100878.00;5024078;28;45423;-84
2021/08/01 00:27:33;;;;;;;;;5.25;4.75;;;;;18.02;58.98;100880.22;5021762;28;45786;-84
2021/08/01 00:29:59;;;;;;;;;4.50;4.50;;;;;17.98;59.63;100881.63;5018670;28;47456;-84
2021/08/01 00:32:24;;;;;;;;;5.00;5.00;;;;;17.94;59.52;100883.03;5022438;28;45867;-84
2021/08/01 00:34:50;;;;;;;;;6.25;5.25;;;;;17.88;59.97;100875.78;5004969;28;45446;-84
2021/08/01 00:37:15;;;;;;;;;7.25;5.00;;;;;17.86;59.67;100883.19;5020401;28;49199;-85
2021/08/01 00:39:40;;;;;;;;;5.00;4.75;;;;;17.80;60.16;100877.59;5022977;28;49921;-86
2021/08/01 00:42:07;;;;;;;;;5.00;4.00;;;;;17.76;60.31;100884.31;5011408;28;52793;-86
2021/08/01 00:44:32;;;;;;;;;4.00;3.75;;;;;17.73;60.72;100887.38;5031281;28;45500;-86
2021/08/01 00:46:58;;;;;;;;;6.25;4.75;;;;;17.69;60.40;100883.41;5024208;28;45802;-85
2021/08/01 00:49:23;;;;;;;;;6.00;4.25;;;;;17.64;60.44;100880.50;5009508;28;46601;-84
2021/08/01 00:51:48;;;;;;;;;8.25;5.75;;;;;17.61;60.76;100884.38;5024686;28;45471;-85
2021/08/01 00:54:14;;;;;;;;;7.50;6.00;;;;;17.58;60.90;100883.94;5025921;28;45504;-85
2021/08/01 00:56:39;;;;;;;;;5.75;5.75;;;;;17.55;60.83;100889.66;5008459;28;45647;-85
2021/08/01 00:59:04;;;;;;;;;5.25;5.25;;;;;17.51;60.80;100886.56;5019833;28;48812;-85
2021/08/01 01:01:43;;;;;;;;;8.00;5.00;;;;;17.49;60.93;100891.25;5022505;28;45438;-86
2021/08/01 01:04:30;;;;;;;;;6.00;5.00;;;;;17.47;61.26;100889.78;5009669;28;45435;-85
2021/08/01 01:07:29;;;;;;;;;6.75;4.75;;;;;17.41;60.80;100886.06;5009173;28;45638;-85
2021/08/01 01:10:17;;;;;;;;;7.00;5.00;;;;;17.35;61.00;100887.63;5017987;28;47483;-85
2021/08/01 01:12:52;;;;;;;;;5.50;4.00;;;;;17.34;60.99;100885.16;5004190;28;46881;-85
2021/08/01 01:15:22;;;;;;;;;5.50;4.00;;;;;17.30;61.21;100884.69;5022264;28;46287;-86
2021/08/01 01:17:51;;;;;;;;;4.25;4.00;;;;;17.26;61.07;100888.78;5007116;28;45482;-85
2021/08/01 01:20:48;;;;;;;;;4.00;4.00;;;;;17.25;61.25;100881.75;5024862;28;46270;-83
2021/08/01 01:23:32;;;;;;;;;4.25;3.50;;;;;17.20;61.01;100885.00;5023009;28;45734;-85
2021/08/01 01:26:08;;;;;;;;;4.00;4.00;;;;;17.19;61.91;100887.88;5024181;28;45565;-85
2021/08/01 01:29:04;;;;;;;;;4.25;4.25;;;;;17.15;62.19;100883.91;5003427;28;52985;-84
2021/08/01 01:32:06;;;;;;;;;5.75;4.00;;;;;17.13;61.98;100886.75;5025550;28;45719;-85
2021/08/01 01:34:37;;;;;;;;;8.25;4.75;;;;;17.10;62.31;100889.00;5022542;28;46447;-84
2021/08/01 01:37:08;;;;;;;;;4.00;4.00;;;;;17.06;61.91;100890.38;5020046;28;45493;-85
2021/08/01 01:39:37;;;;;;;;;6.75;5.00;;;;;17.05;62.42;100891.41;5019201;28;46496;-85
2021/08/01 01:42:05;;;;;;;;;4.75;4.75;;;;;17.04;62.34;100890.59;5025486;28;45617;-84
2021/08/01 01:44:34;;;;;;;;;4.50;4.50;;;;;17.03;62.61;100893.44;5008836;28;45423;-85
2021/08/01 01:47:00;;;;;;;;;3.25;3.25;;;;;17.04;63.22;100892.44;5008641;28;45595;-86
2021/08/01 01:49:25;;;;;;;;;5.00;5.00;;;;;17.05;62.65;100886.88;5024672;28;45504;-85
2021/08/01 01:51:53;;;;;;;;;3.00;3.00;;;;;17.07;63.53;100889.38;5003461;28;47263;-85
2021/08/01 01:54:18;;;;;;;;;5.50;4.00;;;;;17.12;62.75;100886.97;5023771;28;45903;-85
2021/08/01 01:56:44;;;;;;;;;3.00;3.00;;;;;17.13;62.85;100884.09;5026744;28;45768;-85
2021/08/01 01:59:12;;;;;;;;;4.50;4.50;;;;;17.15;62.95;100881.25;5007653;28;45470;-85
2021/08/01 02:01:39;;;;;;;;;4.50;3.25;;;;;17.19;62.66;100885.19;5021059;28;47157;-84
2021/08/01 02:04:05;;;;;;;;;4.50;4.50;;;;;17.21;62.82;100880.50;5022880;28;45940;-84
2021/08/01 02:06:30;;;;;;;;;5.00;3.75;;;;;17.23;62.48;100878.44;5021269;28;45664;-85
2021/08/01 02:09:36;;;;;;;;;4.75;4.75;;;;;17.26;62.41;100883.44;5025982;28;45483;-85
2021/08/01 02:12:05;;;;;;;;;3.50;3.50;;;;;17.28;62.27;100886.72;5004063;28;47006;-85
2021/08/01 02:14:37;;;;;;;;;6.50;4.00;;;;;17.29;62.24;100882.22;5024080;28;53428;-85
2021/08/01 02:17:10;;;;;;;;;5.50;4.50;;;;;17.29;62.42;100877.72;5002191;28;45510;-85
2021/08/01 02:19:39;;;;;;;;;8.50;5.00;;;;;17.31;62.67;100880.16;5025154;28;45827;-85
2021/08/01 02:22:06;;;;;;;;;4.75;4.75;;;;;17.31;62.62;100881.03;5003771;28;48381;-84
2021/08/01 02:24:33;;;;;;;;;5.00;3.75;;;;;17.32;62.97;100882.66;5021693;28;45674;-84
2021/08/01 02:26:59;;;;;;;;;9.75;5.00;;;;;17.32;63.50;100881.84;5011108;28;46770;-86
2021/08/01 02:29:26;;;;;;;;;6.00;6.00;;;;;17.33;63.65;100883.47;5023580;28;45809;-84
2021/08/01 02:31:52;;;;;;;;;4.00;4.00;;;;;17.34;63.64;100880.63;5021788;28;46436;-84
2021/08/01 02:34:17;;;;;;;;;3.50;3.50;;;;;17.34;64.03;100880.63;5006393;28;47701;-84
2021/08/01 02:36:44;;;;;;;;;6.75;4.00;;;;;17.34;64.18;100880.63;5025485;28;45550;-84
2021/08/01 02:39:11;;;;;;;;;6.50;6.00;;;;;17.34;64.27;100880.63;5025553;28;45699;-85
2021/08/01 02:41:38;;;;;;;;;4.00;4.00;;;;;17.36;64.38;100869.78;5022765;28;45793;-85
2021/08/01 02:44:15;;;;;;;;;4.25;4.00;;;;;17.36;63.84;100867.91;5000667;28;46088;-84
2021/08/01 02:46:43;;;;;;;;;6.00;4.75;;;;;17.36;63.91;100861.75;5021839;28;46195;-85
2021/08/01 02:49:17;;;;;;;;;5.00;5.00;;;;;17.36;64.08;100861.75;5023987;28;45849;-84
2021/08/01 02:51:47;;;;;;;;;10.25;7.00;;;;;17.33;63.99;100860.28;5022124;28;48097;-85
2021/08/01 02:54:14;;;;;;;;;5.25;5.00;;;;;17.32;63.91;100861.28;5027167;28;45577;-84
2021/08/01 02:56:39;;;;;;;;;5.50;4.00;;;;;17.30;63.74;100863.31;5026155;28;46577;-83
2021/08/01 02:59:06;;;;;;;;;6.00;5.00;;;;;17.28;64.04;100868.03;5023893;28;45478;-84
2021/08/01 03:01:32;;;;;;;;;5.00;4.25;;;;;17.23;63.65;100862.41;5020107;28;47454;-85
2021/08/01 03:03:59;;;;;;;;;4.25;4.00;;;;;17.22;64.15;100871.47;5016662;28;45510;-84
2021/08/01 03:06:24;;;;;;;;;5.75;5.50;;;;;17.16;64.03;100873.06;5029048;28;45685;-85
2021/08/01 03:08:50;;;;;;;;;5.75;5.00;;;;;17.14;64.10;100871.59;5027932;28;45589;-84
2021/08/01 03:11:22;;;;;;;;;4.00;4.00;;;;;17.09;64.29;100861.47;5001322;28;61232;-84
2021/08/01 03:13:48;;;;;;;;;4.25;4.25;;;;;17.07;64.30;100870.69;5023702;28;45494;-85
2021/08/01 03:16:13;;;;;;;;;7.25;4.50;;;;;17.02;64.10;100867.75;5027723;28;45609;-84
2021/08/01 03:18:39;;;;;;;;;5.25;5.00;;;;;16.96;64.47;100870.16;5005835;28;45744;-84
2021/08/01 03:21:04;;;;;;;;;4.00;3.75;;;;;16.94;64.36;100871.38;5019628;28;46622;-85
2021/08/01 03:23:29;;;;;;;;;5.75;5.00;;;;;16.90;64.62;100873.56;5025173;28;45438;-85
2021/08/01 03:25:55;;;;;;;;;4.75;4.75;;;;;16.86;64.54;100872.28;5025129;28;45482;-84
2021/08/01 03:28:20;;;;;;;;;4.75;4.75;;;;;16.82;64.46;100878.22;5025359;28;45584;-84
2021/08/01 03:30:45;;;;;;;;;6.00;6.00;;;;;16.77;64.96;100876.06;5023398;28;46337;-84
2021/08/01 03:33:10;;;;;;;;;7.75;6.00;;;;;16.73;65.32;100878.25;5027856;28;46160;-85
2021/08/01 03:35:36;;;;;;;;;6.00;6.00;;;;;16.70;64.96;100878.63;5023276;28;45407;-81
2021/08/01 03:38:01;;;;;;;;;5.00;5.00;;;;;16.65;64.87;100875.69;5024011;28;45511;-86
2021/08/01 03:40:27;;;;;;;;;5.50;5.25;;;;;16.62;64.70;100870.75;5022771;28;46541;-83
2021/08/01 03:42:53;;;;;;;;;6.00;5.25;;;;;16.59;64.74;100875.59;5026229;28;45831;-84
2021/08/01 03:45:18;;;;;;;;;5.50;5.50;;;;;16.54;65.32;100877.00;5010724;28;45900;-84
2021/08/01 03:47:43;;;;;;;;;5.00;4.50;;;;;16.51;65.36;100874.69;5025122;28;45871;-83
2021/08/01 03:50:09;;;;;;;;;4.25;3.50;;;;;16.48;65.43;100869.72;5021248;28;45499;-83
2021/08/01 03:52:35;;;;;;;;;5.75;4.00;;;;;16.44;65.44;100879.09;5024815;28;46108;-83
2021/08/01 03:55:00;;;;;;;;;6.00;4.25;;;;;16.42;65.47;100873.16;5023165;28;45634;-84
2021/08/01 03:57:25;;;;;;;;;6.00;5.50;;;;;16.39;65.73;100870.81;5026113;28;45951;-84
2021/08/01 03:59:51;;;;;;;;;5.00;4.00;;;;;16.37;65.93;100870.22;5029691;28;45514;-85
2021/08/01 04:02:16;;;;;;;;;4.50;4.00;;;;;16.32;66.23;100870.75;5023407;28;45498;-84
2021/08/01 04:04:42;;;;;;;;;5.25;5.00;;;;;16.30;66.32;100871.94;5008358;28;45505;-83
2021/08/01 04:07:07;;;;;;;;;5.75;4.75;;;;;16.29;66.35;100871.09;5008400;28;45476;-84
2021/08/01 04:09:33;;;;;;;;;5.00;5.00;;;;;16.27;66.12;100877.63;5025388;28;46426;-84
2021/08/01 04:11:58;;;;;;;;;5.50;5.00;;;;;16.25;66.40;100883.16;5029012;28;45657;-83
2021/08/01 04:14:25;;;;;;;;;10.25;6.00;;;;;16.23;66.31;100871.84;5025419;28;46289;-83
2021/08/01 04:16:50;;;;;;;;;4.00;4.00;;;;;16.22;65.88;100869.34;5025362;28;46086;-83
2021/08/01 04:19:16;;;;;;;;;3.50;2.50;;;;;16.20;66.28;100872.22;5022690;28;45755;-83
2021/08/01 04:21:43;;;;;;;;;4.25;4.25;;;;;16.20;66.21;100866.06;5008520;28;45538;-83
2021/08/01 04:24:09;;;;;;;;;3.75;3.75;;;;;16.19;65.82;100864.38;5027634;28;45563;-84
2021/08/01 04:26:36;;;;;;;;;3.25;3.25;;;;;16.17;65.90;100875.25;5024276;28;45653;-83
2021/08/01 04:29:02;;;;;;;;;4.50;4.50;;;;;16.15;66.06;100863.09;5028924;28;47372;-84
2021/08/01 04:31:27;;;;;;;;;4.25;2.75;;;;;16.14;65.51;100867.59;5023396;28;46039;-83
2021/08/01 04:33:53;;;;;;;;;7.00;4.50;;;;;16.15;66.28;100863.09;5026173;28;45501;-83
2021/08/01 04:36:18;;;;;;;;;4.00;3.00;;;;;16.15;66.11;100877.28;5006920;28;46240;-82
2021/08/01 04:38:44;;;;;;;;;4.50;4.00;;;;;16.16;66.69;100875.44;5026777;28;46622;-83
2021/08/01 04:41:09;;;;;;;;;5.00;4.00;;;;;16.16;67.56;100867.44;5024171;28;45983;-83
2021/08/01 04:43:35;;;;;;;;;7.75;6.00;;;;;16.17;67.73;100871.75;5025891;28;45578;-84
2021/08/01 04:46:00;;;;;;;;;4.75;4.25;;;;;16.19;68.16;100869.72;5025315;28;45560;-84
2021/08/01 04:48:26;;;;;;;;;6.00;4.75;;;;;16.21;68.34;100867.72;5025706;28;46486;-83
2021/08/01 04:50:51;;;;;;;;;5.25;4.25;;;;;16.25;68.29;100866.34;5008053;28;45786;-82
2021/08/01 04:53:16;;;;;;;;;5.50;5.50;;;;;16.28;68.14;100865.97;5026270;28;45690;-85
2021/08/01 04:55:45;;;;;;;;;6.00;5.50;;;;;16.29;67.90;100862.28;5021944;28;45712;-86
2021/08/01 04:58:10;;;;;;;;;5.00;3.50;;;;;16.30;68.23;100866.63;5007142;28;48203;-83
2021/08/01 05:00:35;;;;;;;;;7.75;6.00;;;;;16.33;68.44;100863.56;5009167;28;45631;-83
2021/08/01 05:03:02;;;;;;;;;5.00;5.00;;;;;16.38;68.00;100871.03;5029930;28;45721;-81
2021/08/01 05:05:28;;;;;;;;;7.25;4.75;;;;;16.42;67.86;100866.97;5005839;28;45933;-84
2021/08/01 05:07:54;;;;;;;;;5.75;5.75;;;;;16.47;67.85;100867.25;5004277;28;47543;-82
2021/08/01 05:10:20;;;;;;;;;5.00;5.00;;;;;16.50;67.83;100865.03;5002446;28;45988;-82
2021/08/01 05:12:45;;;;;;;;;5.50;4.00;;;;;16.55;67.40;100865.31;5018898;28;45897;-83
2021/08/01 05:15:11;;;;;;;;;5.00;5.00;;;;;16.58;67.57;100863.28;5011318;28;45646;-81
2021/08/01 05:17:36;;;;;;;;;4.75;4.75;;;;;16.63;67.55;100863.56;4997785;28;47286;-81
2021/08/01 05:20:02;;;;;;;;;5.75;5.25;;;;;16.64;66.85;100859.88;5021539;28;45989;-85
2021/08/01 05:22:27;;;;;;;;;5.50;5.00;;;;;16.70;66.94;100867.97;5019973;28;45479;-83
2021/08/01 05:24:53;;;;;;;;;4.00;4.00;;;;;16.78;66.58;100869.72;5021065;28;50583;-81
2021/08/01 05:27:18;;;;;;;;;5.00;5.00;;;;;16.89;66.08;100871.94;5024363;28;46142;-82
2021/08/01 05:29:44;;;;;;;;;4.25;4.00;;;;;17.01;66.50;100868.75;5016457;28;45525;-82
2021/08/01 05:32:09;;;;;;;;;5.50;4.25;;;;;17.17;66.05;100874.69;5002513;28;45720;-82
2021/08/01 05:34:35;;;;;;;;;7.00;5.00;;;;;17.37;65.76;100874.91;5004901;28;45725;-81
2021/08/01 05:37:00;;;;;;;;;5.25;5.25;;;;;17.55;65.26;100876.31;5022595;28;45795;-81
2021/08/01 05:39:25;;;;;;;;;6.00;4.00;;;;;17.67;64.92;100872.09;5006818;28;46393;-81
2021/08/01 05:41:51;;;;;;;;;4.75;3.75;;;;;17.75;64.53;100877.28;5025276;28;45699;-80
2021/08/01 05:44:16;;;;;;;;;4.50;3.50;;;;;17.81;64.79;100871.22;5001103;28;45728;-83
2021/08/01 05:46:41;;;;;;;;;3.50;3.50;;;;;17.91;64.39;100875.41;5004234;28;55259;-81
2021/08/01 05:49:07;;;;;;;;;5.00;4.00;;;;;17.96;63.98;100876.47;5007805;28;46015;-81
2021/08/01 05:51:32;;;;;;;;;2.50;2.00;;;;;17.98;64.10;100887.81;5002797;28;45531;-81
2021/08/01 05:53:58;;;;;;;;;3.00;3.00;;;;;17.97;63.90;100877.28;5009000;28;45572;-81
2021/08/01 05:56:23;;;;;;;;;3.00;3.00;;;;;17.93;64.08;100873.38;5024312;28;45724;-82
2021/08/01 05:58:48;;;;;;;;;4.25;4.25;;;;;17.89;64.36;100877.44;5021933;28;45786;-84
2021/08/01 06:01:16;;;;;;;;;7.25;2.75;;;;;17.88;63.77;100878.44;5025274;28;45496;-81
2021/08/01 06:03:42;;;;;;;;;5.75;4.00;;;;;17.88;64.60;100883.78;5021107;28;45558;-81
2021/08/01 06:06:07;;;;;;;;;3.75;3.00;;;;;17.90;64.05;100885.25;5026305;28;45990;-81
2021/08/01 06:08:33;;;;;;;;;4.50;3.00;;;;;17.94;64.09;100883.84;5021014;28;46087;-82
2021/08/01 06:10:58;;;;;;;;;4.25;4.00;;;;;18.01;63.88;100884.75;5008768;28;45548;-81
2021/08/01 06:13:23;;;;;;;;;6.75;4.00;;;;;18.06;64.11;100889.50;5004766;28;53358;-82
2021/08/01 06:15:49;;;;;;;;;2.25;2.25;;;;;18.14;63.70;100885.84;5020876;28;56666;-81
2021/08/01 06:18:14;;;;;;;;;4.00;3.00;;;;;18.25;63.68;100896.03;5025892;28;45866;-82
2021/08/01 06:20:39;;;;;;;;;2.25;2.00;;;;;18.39;63.60;100891.56;5023415;28;45504;-81
2021/08/01 06:23:05;;;;;;;;;4.75;3.00;;;;;18.51;63.35;100891.84;5023825;28;45453;-81
2021/08/01 06:25:31;;;;;;;;;3.00;3.00;;;;;18.62;62.78;100894.81;5025889;28;54132;-81
2021/08/01 06:27:57;;;;;;;;;4.00;3.50;;;;;18.73;62.66;100890.72;5025259;28;46895;-81
2021/08/01 06:30:22;;;;;;;;;2.50;2.50;;;;;18.81;61.79;100895.09;5028006;28;54137;-81
2021/08/01 06:32:47;;;;;;;;;3.00;3.00;;;;;18.89;61.63;100894.94;5027964;28;45700;-81
2021/08/01 06:35:13;;;;;;;;;2.50;2.50;;;;;18.97;61.88;100891.28;5006811;28;55889;-81
2021/08/01 06:37:38;;;;;;;;;1.50;1.50;;;;;19.06;61.61;100900.75;5026079;28;45570;-82
2021/08/01 06:40:04;;;;;;;;;3.00;3.00;;;;;19.15;61.64;100906.78;5025085;28;45483;-81
2021/08/01 06:42:29;;;;;;;;;2.00;2.00;;;;;19.21;61.28;100908.63;5025435;28;45575;-81
2021/08/01 06:44:55;;;;;;;;;4.25;2.25;;;;;19.31;61.14;100906.38;5013236;28;59140;-80
2021/08/01 06:47:20;;;;;;;;;2.75;2.50;;;;;19.39;61.00;100900.88;5024012;28;46406;-81
2021/08/01 06:49:45;;;;;;;;;3.00;3.00;;;;;19.48;60.54;100899.63;5008272;28;45558;-81
2021/08/01 06:52:10;;;;;;;;;3.00;2.25;;;;;19.57;60.54;100900.25;5006694;28;53591;-80
2021/08/01 06:54:36;;;;;;;;;3.00;3.00;;;;;19.69;60.46;100909.38;5009409;28;47208;-80
2021/08/01 06:57:02;;;;;;;;;4.25;2.50;;;;;19.75;59.77;100905.03;5029252;28;45587;-80
2021/08/01 06:59:27;;;;;;;;;4.75;3.00;;;;;19.80;59.52;100905.25;5026712;28;45526;-80
2021/08/01 07:01:52;;;;;;;;;2.00;2.00;;;;;19.91;59.56;100910.00;5006823;28;46415;-80
2021/08/01 07:04:17;;;;;;;;;3.50;3.00;;;;;20.03;59.16;100912.91;5008459;28;62991;-80
2021/08/01 07:06:44;;;;;;;;;2.75;1.25;;;;;20.15;58.67;100910.41;5024017;28;54893;-80
2021/08/01 07:09:09;;;;;;;;;1.75;1.75;;;;;20.28;57.95;100915.75;5009577;28;45914;-80
2021/08/01 07:11:34;;;;;;;;;3.25;2.00;;;;;20.41;58.15;100926.47;5023934;28;45517;-80
2021/08/01 07:14:00;;;;;;;;;2.25;1.25;;;;;20.48;57.91;100918.41;5020299;28;53657;-79
2021/08/01 07:16:25;;;;;;;;;2.75;1.75;;;;;20.57;57.41;100909.13;5024024;28;45654;-82
2021/08/01 07:18:50;;;;;;;;;3.00;1.50;;;;;20.71;57.47;100919.81;5004634;28;49729;-83
2021/08/01 07:21:16;;;;;;;;;5.50;2.00;;;;;20.80;57.36;100916.69;5007198;28;45509;-83
2021/08/01 07:23:41;;;;;;;;;1.25;1.25;;;;;20.95;57.00;100923.66;5007321;28;46997;-83
2021/08/01 07:26:06;;;;;;;;;3.75;2.75;;;;;21.07;56.79;100924.63;5006278;28;53361;-83
2021/08/01 07:28:33;;;;;;;;;4.50;3.00;;;;;21.19;55.84;100928.31;5000529;28;45627;-83
2021/08/01 07:30:58;;;;;;;;;3.75;3.75;;;;;21.34;56.16;100932.53;5008914;28;45652;-83
2021/08/01 07:33:24;;;;;;;;;4.00;4.00;;;;;21.57;55.81;100938.22;5023362;28;46491;-82
2021/08/01 07:35:49;;;;;;;;;3.00;2.00;;;;;21.83;55.35;100925.63;5007623;28;45950;-84
2021/08/01 07:38:15;;;;;;;;;3.50;3.00;;;;;22.25;55.19;100934.00;5023360;28;45920;-80
2021/08/01 07:40:40;;;;;;;;;2.00;2.00;;;;;22.66;54.36;100929.84;5007755;28;45615;-85
2021/08/01 07:43:05;;;;;;;;;3.75;3.75;;;;;23.65;52.71;100933.13;5022876;28;45536;-83
2021/08/01 07:45:34;;;;;;;;;4.00;2.00;;;;;24.12;50.52;100925.13;5020690;28;46336;-84
2021/08/01 07:48:00;;;;;;;;;4.00;3.00;;;;;24.42;50.32;100932.25;5028062;28;45752;-83
2021/08/01 07:50:27;;;;;;;;;3.00;3.00;;;;;25.74;49.53;100933.25;5008962;28;46431;-85
2021/08/01 07:52:52;;;;;;;;;4.25;3.75;;;;;26.09;47.09;100926.81;5002395;28;48185;-83
2021/08/01 07:55:18;;;;;;;;;3.00;3.00;;;;;26.12;47.25;100931.72;5026321;28;45506;-84
2021/08/01 07:57:44;;;;;;;;;5.00;2.75;;;;;25.95;46.69;100935.25;5021840;28;45660;-83
2021/08/01 08:00:11;;;;;;;;;2.50;2.00;;;;;25.67;46.65;100944.25;5026322;28;45794;-84
2021/08/01 08:02:37;;;;;;;;;2.50;2.50;;;;;25.49;47.54;100945.28;5022563;28;48084;-82
2021/08/01 08:05:03;;;;;;;;;2.50;1.25;;;;;25.55;47.44;100934.56;5004439;28;51964;-80
2021/08/01 08:07:28;;;;;;;;;1.75;1.75;;;;;25.83;46.27;100939.91;5027119;28;45808;-85
2021/08/01 08:09:54;;;;;;;;;2.75;2.00;;;;;25.64;46.78;100943.91;5007280;28;45835;-84
2021/08/01 08:12:19;;;;;;;;;2.00;2.00;;;;;25.63;46.33;100942.25;5025669;28;45765;-83
2021/08/01 08:14:45;;;;;;;;;3.00;2.00;;;;;26.51;46.50;100939.88;5026220;28;45644;-83
2021/08/01 08:17:10;;;;;;;;;2.75;2.75;;;;;26.72;45.67;100935.53;5025406;28;45916;-82
2021/08/01 08:19:36;;;;;;;;;4.75;3.00;;;;;27.92;45.27;100935.47;5004972;28;45697;-83
2021/08/01 08:22:02;;;;;;;;;2.50;2.50;;;;;29.57;41.54;100935.09;5024226;28;45927;-83
2021/08/01 08:24:28;;;;;;;;;2.00;2.00;;;;;29.48;40.51;100942.19;5009745;28;45782;-84
2021/08/01 08:26:54;;;;;;;;;4.00;3.00;;;;;29.41;40.67;100939.72;5026938;28;45517;-84
2021/08/01 08:29:23;;;;;;;;;3.00;2.00;;;;;28.78;40.52;100944.41;5004163;28;45716;-84
2021/08/01 08:31:50;;;;;;;;;2.25;2.00;;;;;27.98;42.09;100955.31;5023511;28;46503;-83
2021/08/01 08:34:17;;;;;;;;;2.00;2.00;;;;;27.22;42.55;100957.03;5007851;28;45588;-83
2021/08/01 08:36:47;;;;;;;;;4.75;2.75;;;;;26.53;43.44;100957.53;5023382;28;45573;-83
2021/08/01 08:39:12;;;;;;;;;2.50;2.00;;;;;26.52;43.47;100952.34;5026118;28;45610;-83
2021/08/01 08:41:38;;;;;;;;;4.50;2.00;;;;;27.12;43.06;100951.47;5004278;28;47875;-83
2021/08/01 08:44:03;;;;;;;;;4.00;4.00;;;;;26.78;42.02;100961.63;5025048;28;45620;-83
2021/08/01 08:46:29;;;;;;;;;2.00;2.00;;;;;27.01;42.82;100961.38;5022560;28;45686;-84
2021/08/01 08:48:55;;;;;;;;;2.00;2.00;;;;;28.15;41.53;100963.34;5023665;28;45898;-84
2021/08/01 08:51:25;;;;;;;;;4.50;2.25;;;;;29.47;40.52;100956.84;5023394;28;45717;-83
2021/08/01 08:53:53;;;;;;;;;3.25;2.00;;;;;32.22;37.97;100948.69;5026096;28;45477;-83
2021/08/01 08:56:19;;;;;;;;;3.00;2.00;;;;;34.95;34.48;100954.28;5023045;28;47912;-84
2021/08/01 08:58:50;;;;;;;;;3.50;2.25;;;;;36.26;31.45;100958.81;5022536;28;45423;-84
2021/08/01 09:01:16;;;;;;;;;2.25;2.00;;;;;36.80;31.13;100957.53;5017576;28;46184;-83
2021/08/01 09:03:42;;;;;;;;;0.50;0.50;;;;;38.34;30.45;100957.25;5021813;28;47218;-83
2021/08/01 09:06:07;;;;;;;;;2.25;2.00;;;;;39.58;27.73;100959.66;5028932;28;45437;-83
2021/08/01 09:08:32;;;;;;;;;1.00;1.00;;;;;40.60;27.11;100966.25;5022233;28;45447;-84
2021/08/01 09:10:58;;;;;;;;;1.75;1.75;;;;;41.99;25.54;100964.00;5021791;28;46148;-83
2021/08/01 09:13:44;;;;;;;;;5.50;0.25;;;;;43.37;24.08;100961.97;5021466;28;45782;-84
2021/08/01 09:16:10;;;;;;;;;1.75;1.00;;;;;43.77;23.45;100971.06;5019062;28;46072;-82
2021/08/01 09:18:36;;;;;;;;;2.50;0.75;;;;;44.39;22.12;100966.19;5023475;28;55240;-82
2021/08/01 09:21:01;;;;;;;;;0.25;0.25;;;;;45.14;21.67;100979.56;5027604;28;49404;-82
2021/08/01 09:23:26;;;;;;;;;1.75;1.25;;;;;45.30;18.67;100976.56;5021788;28;45456;-82
2021/08/01 09:26:04;;;;;;;;;1.00;1.00;;;;;44.93;21.04;100966.13;5025612;28;46237;-82
2021/08/01 09:28:30;;;;;;;;;1.50;1.00;;;;;44.60;20.95;100973.25;5002637;28;45608;-83
2021/08/01 09:30:57;;;;;;;;;0.00;0.00;;;;;42.26;20.83;100967.81;5016945;28;46463;-85
2021/08/01 09:33:36;;;;;;;;;0.00;0.00;;;;;39.95;23.56;100969.69;5007516;28;45477;-82
2021/08/01 09:36:15;;;;;;;;;1.00;1.00;;;;;37.74;24.95;100964.56;5027468;28;45534;-82
2021/08/01 09:38:54;;;;;;;;;3.00;3.00;;;;;35.75;25.95;100967.25;5026482;28;45853;-83
2021/08/01 09:41:21;;;;;;;;;1.50;1.50;;;;;34.16;27.87;100977.22;5019736;28;46551;-83
2021/08/01 09:43:57;;;;;;;;;2.50;1.25;;;;;32.71;29.49;100976.84;5021527;28;45530;-82
2021/08/01 09:46:44;;;;;;;;;2.00;0.75;;;;;31.37;30.79;100985.38;5004222;28;45602;-83
2021/08/01 09:49:21;;;;;;;;;1.00;1.00;;;;;30.33;31.89;100968.88;5021450;28;45494;-83
2021/08/01 09:51:49;;;;;;;;;2.00;1.00;;;;;29.63;33.20;100969.41;5002146;28;48330;-81
2021/08/01 09:54:16;;;;;;;;;1.25;1.25;;;;;28.95;33.63;100967.56;5024287;28;45460;-83
2021/08/01 09:56:58;;;;;;;;;1.00;1.00;;;;;28.46;34.92;100964.34;5020347;28;45534;-81
2021/08/01 09:59:29;;;;;;;;;1.00;1.00;;;;;27.99;34.90;100975.97;5003679;28;46881;-84
2021/08/01 10:01:57;;;;;;;;;3.25;1.50;;;;;27.50;35.47;100966.03;5004700;28;47392;-81
2021/08/01 10:04:25;;;;;;;;;2.50;1.50;;;;;27.48;37.37;100956.50;5015404;28;45782;-84
2021/08/01 10:07:07;;;;;;;;;2.25;2.25;;;;;27.75;36.88;100954.56;5010855;28;45801;-86
2021/08/01 10:09:34;;;;;;;;;2.00;2.00;;;;;27.71;36.67;100948.00;5027345;28;45560;-82
2021/08/01 10:12:00;;;;;;;;;2.50;1.25;;;;;27.47;36.14;100958.38;5029532;28;45615;-83
2021/08/01 10:14:27;;;;;;;;;2.00;2.00;;;;;27.35;37.13;100960.41;5026976;28;45970;-80
2021/08/01 10:16:53;;;;;;;;;4.50;2.00;;;;;27.20;37.36;100959.22;5005940;28;46018;-83
2021/08/01 10:19:21;;;;;;;;;3.00;2.75;;;;;27.29;38.13;100956.84;5015079;28;45672;-84
2021/08/01 10:21:52;;;;;;;;;2.00;2.00;;;;;27.58;37.49;100956.59;5024837;28;47290;-85
2021/08/01 10:24:24;;;;;;;;;2.75;1.75;;;;;28.23;36.55;100946.53;5017247;28;45577;-81
2021/08/01 10:26:52;;;;;;;;;1.75;1.25;;;;;29.14;36.26;100942.66;5029178;28;45525;-82
2021/08/01 10:29:32;;;;;;;;;1.25;1.00;;;;;30.05;35.05;100940.28;5006318;28;46445;-82
2021/08/01 10:32:09;;;;;;;;;1.50;1.00;;;;;30.53;34.40;100938.00;5027127;28;46272;-82
2021/08/01 10:35:01;;;;;;;;;0.25;0.25;;;;;30.29;34.34;100937.81;5006490;28;45453;-82
2021/08/01 10:37:31;;;;;;;;;1.00;1.00;;;;;30.45;34.53;100930.41;4995132;28;45555;-82
2021/08/01 10:39:58;;;;;;;;;0.00;0.00;;;;;31.04;33.43;100940.53;5021624;28;45674;-84
2021/08/01 10:42:27;;;;;;;;;1.75;1.00;;;;;31.74;33.76;100929.41;5011657;28;48432;-83
2021/08/01 10:44:53;;;;;;;;;0.00;0.00;;;;;32.38;31.82;100934.84;5014141;28;45646;-85
2021/08/01 10:47:20;;;;;;;;;3.50;0.25;;;;;32.51;31.91;100934.16;5026662;28;45486;-83
2021/08/01 10:49:47;;;;;;;;;0.00;0.00;;;;;32.31;31.05;100940.63;5003457;28;45499;-83
2021/08/01 10:52:16;;;;;;;;;0.00;0.00;;;;;31.88;32.22;100930.38;5005212;28;48933;-82
2021/08/01 10:54:58;;;;;;;;;1.00;1.00;;;;;31.51;31.97;100936.44;5009978;28;45541;-83
2021/08/01 10:57:28;;;;;;;;;0.75;0.00;;;;;31.32;32.03;100928.06;5024149;28;45681;-81
2021/08/01 10:59:53;;;;;;;;;1.00;1.00;;;;;31.32;32.25;100921.81;5015505;28;45668;-81
2021/08/01 11:02:20;;;;;;;;;1.00;1.00;;;;;31.86;31.98;100929.03;5013719;28;47354;-79
2021/08/01 11:04:47;;;;;;;;;2.25;1.00;;;;;31.93;31.86;100929.53;5027695;28;45746;-82
2021/08/01 11:07:32;;;;;;;;;0.50;0.50;;;;;31.72;32.38;100917.97;5024600;28;45481;-80
2021/08/01 11:10:04;;;;;;;;;0.50;0.50;;;;;31.66;30.72;100911.72;5020964;28;45735;-84
2021/08/01 11:12:32;;;;;;;;;0.75;0.00;;;;;32.19;31.77;100919.16;5010127;28;48747;-86
2021/08/01 11:14:58;;;;;;;;;0.00;0.00;;;;;32.88;30.83;100910.69;5031317;28;45781;-86
2021/08/01 11:17:51;;;;;;;;;0.00;0.00;;;;;33.62;29.79;100913.72;5025509;28;45527;-86
2021/08/01 11:20:16;;;;;;;;;0.00;0.00;;;;;34.23;29.17;100909.09;5005917;28;45829;-86
2021/08/01 11:22:42;;;;;;;;;0.00;0.00;;;;;34.71;29.02;100899.63;5007175;28;45590;-86
2021/08/01 11:25:20;;;;;;;;;0.00;0.00;;;;;35.13;27.82;100906.66;5007246;28;49455;-84
2021/08/01 11:28:07;;;;;;;;;0.00;0.00;;;;;35.47;28.97;100906.09;5023761;28;45439;-86